createdAt,value
2019-01-14T00:02:01.934Z,6.12
2019-01-14T00:04:31.511Z,6.15
2019-01-14T00:07:01.268Z,6.16
2019-01-14T00:09:31.065Z,6.14
2019-01-14T00:12:00.398Z,6.05
2019-01-14T00:14:29.268Z,6.05
2019-01-14T00:16:58.223Z,6.13
2019-01-14T00:19:27.198Z,6.18
2019-01-14T00:21:56.084Z,6.18
2019-01-14T00:24:24.891Z,6.25
2019-01-14T00:26:54.125Z,6.24
2019-01-14T00:29:22.922Z,6.22
2019-01-14T00:31:51.836Z,6.18
2019-01-14T00:34:21.156Z,6.14
2019-01-14T00:36:50.047Z,6.12
2019-01-14T00:39:18.853Z,5.99
2019-01-14T00:41:47.729Z,5.89
2019-01-14T00:44:16.700Z,5.85
2019-01-14T00:46:45.512Z,5.83
2019-01-14T00:49:14.405Z,5.85
2019-01-14T00:51:43.281Z,5.80
2019-01-14T00:54:12.166Z,5.74
2019-01-14T00:56:41.137Z,5.70
2019-01-14T00:59:09.974Z,5.70
2019-01-14T01:01:38.912Z,5.75
2019-01-14T01:04:07.961Z,5.80
2019-01-14T01:06:36.937Z,5.83
2019-01-14T01:09:08.175Z,5.77
2019-01-14T01:11:37.130Z,5.79
2019-01-14T01:14:06.027Z,5.75
2019-01-14T01:16:34.996Z,5.69
2019-01-14T01:19:04.598Z,5.66
2019-01-14T01:21:34.401Z,5.62
2019-01-14T01:24:03.428Z,5.63
2019-01-14T01:26:32.395Z,5.74
2019-01-14T01:29:01.210Z,5.76
2019-01-14T01:31:30.114Z,5.78
2019-01-14T01:33:59.104Z,5.83
2019-01-14T01:36:31.859Z,5.80
2019-01-14T01:38:58.511Z,5.78
2019-01-14T01:41:27.695Z,5.83
2019-01-14T01:43:57.165Z,5.91
2019-01-14T01:46:26.026Z,5.97
2019-01-14T01:48:55.046Z,5.93
2019-01-14T01:51:23.988Z,5.90
2019-01-14T01:53:52.905Z,5.87
2019-01-14T01:56:21.783Z,5.78
2019-01-14T01:58:50.717Z,5.68
2019-01-14T02:01:19.501Z,5.67
2019-01-14T02:03:48.312Z,5.65
2019-01-14T02:06:17.182Z,5.58
2019-01-14T02:08:46.277Z,5.57
2019-01-14T02:11:15.295Z,5.56
2019-01-14T02:13:44.190Z,5.60
2019-01-14T02:16:13.088Z,5.61
2019-01-14T02:18:41.987Z,5.64
2019-01-14T02:21:10.861Z,5.65
2019-01-14T02:23:39.756Z,5.65
2019-01-14T02:26:08.629Z,5.64
2019-01-14T02:28:37.539Z,5.63
2019-01-14T02:31:07.529Z,5.61
2019-01-14T02:33:36.343Z,5.60
2019-01-14T02:36:05.584Z,5.61
2019-01-14T02:38:34.759Z,5.62
2019-01-14T02:41:03.848Z,5.62
2019-01-14T02:43:32.733Z,5.61
2019-01-14T02:46:01.641Z,5.53
2019-01-14T02:48:30.537Z,5.57
2019-01-14T02:50:59.640Z,5.59
2019-01-14T02:53:28.462Z,5.59
2019-01-14T02:55:57.263Z,5.64
2019-01-14T02:58:26.077Z,5.65
2019-01-14T03:00:55.068Z,5.68
2019-01-14T03:03:23.863Z,5.69
2019-01-14T03:05:53.060Z,5.61
2019-01-14T03:08:22.193Z,5.61
2019-01-14T03:10:51.353Z,5.55
2019-01-14T03:13:20.508Z,5.58
2019-01-14T03:15:49.680Z,5.59
2019-01-14T03:18:18.692Z,5.61
2019-01-14T03:20:47.802Z,5.61
2019-01-14T03:23:16.706Z,5.68
2019-01-14T03:25:45.806Z,5.71
2019-01-14T03:28:14.955Z,5.69
2019-01-14T03:30:44.007Z,5.58
2019-01-14T03:33:12.809Z,5.56
2019-01-14T03:35:41.866Z,5.57
2019-01-14T03:38:10.751Z,5.62
2019-01-14T03:40:40.337Z,5.63
2019-01-14T03:43:10.318Z,5.63
2019-01-14T03:45:39.261Z,5.65
2019-01-14T03:48:08.213Z,5.65
2019-01-14T03:50:37.195Z,5.68
2019-01-14T03:53:06.158Z,5.67
2019-01-14T03:55:35.106Z,5.65
2019-01-14T03:58:04.281Z,5.63
2019-01-14T04:00:33.240Z,5.54
2019-01-14T04:03:02.128Z,5.56
2019-01-14T04:05:31.080Z,5.56
2019-01-14T04:08:00.051Z,5.46
2019-01-14T04:10:28.893Z,5.62
2019-01-14T04:12:57.855Z,5.61
2019-01-14T04:15:26.818Z,5.62
2019-01-14T04:17:55.615Z,5.60
2019-01-14T04:20:25.178Z,5.59
2019-01-14T04:22:54.094Z,5.60
2019-01-14T04:25:23.338Z,5.55
2019-01-14T04:27:52.340Z,5.58
2019-01-14T04:30:23.247Z,5.65
2019-01-14T04:32:52.357Z,5.61
2019-01-14T04:35:22.685Z,5.59
2019-01-14T04:37:52.115Z,5.64
2019-01-14T04:40:21.064Z,5.64
2019-01-14T04:42:49.955Z,5.69
2019-01-14T04:45:18.996Z,5.63
2019-01-14T04:47:47.984Z,5.65
2019-01-14T04:50:20.326Z,5.73
2019-01-14T04:52:49.232Z,5.69
2019-01-14T04:55:18.205Z,5.66
2019-01-14T04:57:47.092Z,5.72
2019-01-14T05:00:21.735Z,5.74
2019-01-14T05:02:51.001Z,5.74
2019-01-14T05:05:19.973Z,5.78
2019-01-14T05:07:48.984Z,5.80
2019-01-14T05:10:18.892Z,5.89
2019-01-14T05:12:47.939Z,5.89
2019-01-14T05:15:17.001Z,5.89
2019-01-14T05:17:46.010Z,6.00
2019-01-14T05:20:23.105Z,5.92
2019-01-14T05:22:52.420Z,5.92
2019-01-14T05:25:21.545Z,5.89
2019-01-14T05:27:50.859Z,5.86
2019-01-14T05:30:20.000Z,5.90
2019-01-14T05:32:49.175Z,5.82
2019-01-14T05:35:18.396Z,5.86
2019-01-14T05:37:47.382Z,5.88
2019-01-14T05:40:18.421Z,5.85
2019-01-14T05:42:47.418Z,5.80
2019-01-14T05:45:16.560Z,5.79
2019-01-14T05:47:45.608Z,5.79
2019-01-14T05:50:16.074Z,5.81
2019-01-14T05:52:45.352Z,5.90
2019-01-14T05:55:14.550Z,5.84
2019-01-14T05:57:43.714Z,5.80
2019-01-14T06:00:22.667Z,5.80
2019-01-14T06:02:51.654Z,5.73
2019-01-14T06:05:20.663Z,5.75
2019-01-14T06:07:49.621Z,5.71
2019-01-14T06:10:18.489Z,5.64
2019-01-14T06:12:47.496Z,5.68
2019-01-14T06:15:16.863Z,5.65
2019-01-14T06:17:46.013Z,5.68
2019-01-14T06:20:16.333Z,5.58
2019-01-14T06:22:45.257Z,5.59
2019-01-14T06:25:16.821Z,5.52
2019-01-14T06:27:45.703Z,5.52
2019-01-14T06:30:17.359Z,5.51
2019-01-14T06:32:46.342Z,5.52
2019-01-14T06:35:15.471Z,5.47
2019-01-14T06:37:44.447Z,5.48
2019-01-14T06:40:14.609Z,5.47
2019-01-14T06:42:43.557Z,5.47
2019-01-14T06:45:12.820Z,5.50
2019-01-14T06:47:41.759Z,5.52
2019-01-14T06:50:12.394Z,5.50
2019-01-14T06:52:41.302Z,5.58
2019-01-14T06:55:10.296Z,5.52
2019-01-14T06:57:39.274Z,5.52
2019-01-14T07:00:10.369Z,5.46
2019-01-14T07:02:39.305Z,5.47
2019-01-14T07:05:08.792Z,5.48
2019-01-14T07:07:37.750Z,5.50
2019-01-14T07:10:09.149Z,5.53
2019-01-14T07:12:37.995Z,5.52
2019-01-14T07:15:07.868Z,5.53
2019-01-14T07:17:36.808Z,5.53
2019-01-14T07:20:06.304Z,5.52
2019-01-14T07:22:35.164Z,5.61
2019-01-14T07:25:04.884Z,5.53
2019-01-14T07:27:33.750Z,5.52
2019-01-14T07:30:02.687Z,5.53
2019-01-14T07:32:31.557Z,5.55
2019-01-14T07:35:02.235Z,5.58
2019-01-14T07:37:31.369Z,5.49
2019-01-14T07:40:00.283Z,5.48
2019-01-14T07:42:29.138Z,5.52
2019-01-14T07:44:58.051Z,5.47
2019-01-14T07:47:26.857Z,5.54
2019-01-14T07:49:55.737Z,5.55
2019-01-14T07:52:24.685Z,5.43
2019-01-14T07:54:53.581Z,5.47
2019-01-14T07:57:22.572Z,5.53
2019-01-14T07:59:51.530Z,5.54
2019-01-14T08:02:20.397Z,5.57
2019-01-14T08:04:49.470Z,5.51
2019-01-14T08:07:18.673Z,5.51
2019-01-14T08:09:47.852Z,5.57
2019-01-14T08:12:17.433Z,5.55
2019-01-14T08:14:47.387Z,5.44
2019-01-14T08:17:17.329Z,5.49
2019-01-14T08:19:46.436Z,5.53
2019-01-14T08:22:15.586Z,5.60
2019-01-14T08:24:44.655Z,5.60
2019-01-14T08:27:13.730Z,5.70
2019-01-14T08:29:42.704Z,5.73
2019-01-14T08:32:11.743Z,5.83
2019-01-14T08:34:40.845Z,5.85
2019-01-14T08:37:10.011Z,5.95
2019-01-14T08:39:39.131Z,5.91
2019-01-14T08:42:09.338Z,6.02
2019-01-14T08:44:43.492Z,5.99
2019-01-14T08:47:12.526Z,5.99
2019-01-14T08:49:41.411Z,5.93
2019-01-14T08:52:10.292Z,5.91
2019-01-14T08:54:39.171Z,5.93
2019-01-14T08:57:08.121Z,5.84
2019-01-14T08:59:37.116Z,5.81
2019-01-14T09:02:06.189Z,5.79
2019-01-14T09:04:35.305Z,5.75
2019-01-14T09:07:04.437Z,5.68
2019-01-14T09:09:33.353Z,5.66
2019-01-14T09:12:02.319Z,5.62
2019-01-14T09:14:31.281Z,5.74
2019-01-14T09:17:00.218Z,5.80
2019-01-14T09:19:29.099Z,5.88
2019-01-14T09:21:58.048Z,5.96
2019-01-14T09:24:26.982Z,6.02
2019-01-14T09:26:55.872Z,6.11
2019-01-14T09:29:24.670Z,6.13
2019-01-14T09:31:53.653Z,6.14
2019-01-14T09:34:22.713Z,6.03
2019-01-14T09:36:51.592Z,5.89
2019-01-14T09:39:20.456Z,5.84
2019-01-14T09:41:49.893Z,5.76
2019-01-14T09:44:18.800Z,5.77
2019-01-14T09:46:47.603Z,5.88
2019-01-14T09:49:16.545Z,5.84
2019-01-14T09:51:45.509Z,5.92
2019-01-14T09:54:14.448Z,5.88
2019-01-14T09:56:43.250Z,5.76
2019-01-14T09:59:12.108Z,5.77
2019-01-14T10:01:41.068Z,5.74
2019-01-14T10:04:09.857Z,5.74
2019-01-14T10:06:38.726Z,5.70
2019-01-14T10:09:08.666Z,5.79
2019-01-14T10:11:37.641Z,5.72
2019-01-14T10:14:06.863Z,5.81
2019-01-14T10:16:35.800Z,5.85
2019-01-14T10:19:05.255Z,5.84
2019-01-14T10:21:34.278Z,5.71
2019-01-14T10:24:03.173Z,5.74
2019-01-14T10:26:31.988Z,5.71
2019-01-14T10:29:00.836Z,5.76
2019-01-14T10:31:29.840Z,5.77
2019-01-14T10:33:59.654Z,5.84
2019-01-14T10:36:28.849Z,5.84
2019-01-14T10:38:58.006Z,5.88
2019-01-14T10:41:27.168Z,5.89
2019-01-14T10:43:56.044Z,5.83
2019-01-14T10:46:25.001Z,5.84
2019-01-14T10:48:53.984Z,5.83
2019-01-14T10:51:22.942Z,5.85
2019-01-14T10:53:52.412Z,5.91
2019-01-14T10:56:21.358Z,5.77
2019-01-14T10:58:50.223Z,5.74
2019-01-14T11:01:19.378Z,5.77
2019-01-14T11:03:48.301Z,5.65
2019-01-14T11:06:17.277Z,5.59
2019-01-14T11:08:46.237Z,5.55
2019-01-14T11:11:15.131Z,5.56
2019-01-14T11:13:43.995Z,5.59
2019-01-14T11:16:12.955Z,5.67
2019-01-14T11:18:49.184Z,5.71
2019-01-14T11:21:18.121Z,5.80
2019-01-14T11:23:46.904Z,5.87
2019-01-14T11:26:15.963Z,5.87
2019-01-14T11:28:44.941Z,5.98
2019-01-14T11:31:13.800Z,6.09
2019-01-14T11:33:42.773Z,6.14
2019-01-14T11:36:11.765Z,6.22
2019-01-14T11:38:49.256Z,6.18
2019-01-14T11:41:18.468Z,6.29
2019-01-14T11:43:47.409Z,6.11
2019-01-14T11:46:16.204Z,6.11
2019-01-14T11:48:45.255Z,6.17
2019-01-14T11:51:14.090Z,6.15
2019-01-14T11:53:43.140Z,6.13
2019-01-14T11:56:12.103Z,6.16
2019-01-14T11:58:40.963Z,6.14
2019-01-14T12:01:12.187Z,6.28
2019-01-14T12:03:41.021Z,6.58
2019-01-14T12:06:09.894Z,6.76
2019-01-14T12:08:38.709Z,6.91
2019-01-14T12:11:07.571Z,7.08
2019-01-14T12:13:36.457Z,7.20
2019-01-14T12:16:05.618Z,7.02
2019-01-14T12:18:34.795Z,7.17
2019-01-14T12:21:04.270Z,7.03
2019-01-14T12:23:33.108Z,6.90
2019-01-14T12:26:02.042Z,6.84
2019-01-14T12:28:31.012Z,6.87
2019-01-14T12:30:59.967Z,6.93
2019-01-14T12:33:28.992Z,7.02
2019-01-14T12:35:58.176Z,6.83
2019-01-14T12:38:27.331Z,6.69
2019-01-14T12:40:56.362Z,6.76
2019-01-14T12:43:25.566Z,6.84
2019-01-14T12:45:54.510Z,7.17
2019-01-14T12:48:23.477Z,7.10
2019-01-14T12:50:52.367Z,6.93
2019-01-14T12:53:21.250Z,6.68
2019-01-14T12:55:50.107Z,6.47
2019-01-14T12:58:19.006Z,5.37
2019-01-14T13:00:48.039Z,2.80
2019-01-14T13:03:16.912Z,2.48
2019-01-14T13:05:45.785Z,2.51
2019-01-14T13:08:14.674Z,2.59
2019-01-14T13:10:43.464Z,2.66
2019-01-14T13:13:12.435Z,2.60
2019-01-14T13:15:41.301Z,2.58
2019-01-14T13:18:10.133Z,2.56
2019-01-14T13:20:39.009Z,2.40
2019-01-14T13:23:08.064Z,2.32
2019-01-14T13:25:36.874Z,2.34
2019-01-14T13:28:06.135Z,2.36
2019-01-14T13:30:35.084Z,2.39
2019-01-14T13:33:04.540Z,2.40
2019-01-14T13:35:33.549Z,2.43
2019-01-14T13:38:02.429Z,2.38
2019-01-14T13:40:31.380Z,2.37
2019-01-14T13:43:00.763Z,2.34
2019-01-14T13:45:29.876Z,2.38
2019-01-14T13:47:59.043Z,2.38
2019-01-14T13:50:28.129Z,2.42
2019-01-14T13:52:57.071Z,2.52
2019-01-14T13:55:26.158Z,2.51
2019-01-14T13:57:59.718Z,2.46
2019-01-14T14:00:27.358Z,2.49
2019-01-14T14:02:56.222Z,2.42
2019-01-14T14:05:25.238Z,2.42
2019-01-14T14:07:54.167Z,2.52
2019-01-14T14:10:28.602Z,2.54
2019-01-14T14:12:57.638Z,2.54
2019-01-14T14:15:26.783Z,2.52
2019-01-14T14:17:56.689Z,2.66
2019-01-14T14:20:25.965Z,2.67
2019-01-14T14:22:54.838Z,2.65
2019-01-14T14:25:23.803Z,2.81
2019-01-14T14:27:52.610Z,2.88
2019-01-14T14:30:27.389Z,2.83
2019-01-14T14:32:56.543Z,2.86
2019-01-14T14:35:25.489Z,2.90
2019-01-14T14:38:01.005Z,2.90
2019-01-14T14:40:25.145Z,2.88
2019-01-14T14:42:54.386Z,2.87
2019-01-14T14:45:23.351Z,2.82
2019-01-14T14:47:52.344Z,2.84
2019-01-14T14:50:21.420Z,2.84
2019-01-14T14:52:50.597Z,2.87
2019-01-14T14:55:19.473Z,2.83
2019-01-14T14:57:48.425Z,2.77
2019-01-14T15:00:19.772Z,2.83
2019-01-14T15:02:48.824Z,2.74
2019-01-14T15:05:17.980Z,2.70
2019-01-14T15:07:46.851Z,2.75
2019-01-14T15:10:17.547Z,2.57
2019-01-14T15:12:46.487Z,2.52
2019-01-14T15:15:17.325Z,2.56
2019-01-14T15:17:46.268Z,2.47
2019-01-14T15:20:16.927Z,2.46
2019-01-14T15:22:45.803Z,2.36
2019-01-14T15:25:14.910Z,2.27
2019-01-14T15:27:43.802Z,2.34
2019-01-14T15:30:27.081Z,2.15
2019-01-14T15:32:56.027Z,2.19
2019-01-14T15:35:25.377Z,2.26
2019-01-14T15:37:54.463Z,2.27
2019-01-14T15:40:24.540Z,2.42
2019-01-14T15:42:53.596Z,2.41
2019-01-14T15:45:24.092Z,2.42
2019-01-14T15:47:52.973Z,2.44
2019-01-14T15:50:21.913Z,2.47
2019-01-14T15:52:50.887Z,2.46
2019-01-14T15:55:22.240Z,2.63
2019-01-14T15:57:51.599Z,2.54
2019-01-14T16:00:20.963Z,2.58
2019-01-14T16:02:50.123Z,2.61
2019-01-14T16:05:19.106Z,2.55
2019-01-14T16:07:48.070Z,2.65
2019-01-14T16:10:19.048Z,2.59
2019-01-14T16:12:48.173Z,2.60
2019-01-14T16:15:17.139Z,2.63
2019-01-14T16:17:46.905Z,2.68
2019-01-14T16:20:17.711Z,2.54
2019-01-14T16:22:47.206Z,2.50
2019-01-14T16:25:16.176Z,2.47
2019-01-14T16:27:45.131Z,2.44
2019-01-14T16:30:16.623Z,2.48
2019-01-14T16:32:45.433Z,2.64
2019-01-14T16:35:14.402Z,2.57
2019-01-14T16:37:43.668Z,2.66
2019-01-14T16:40:17.982Z,2.79
2019-01-14T16:42:43.498Z,2.74
2019-01-14T16:45:15.263Z,2.69
2019-01-14T16:47:44.249Z,2.70
2019-01-14T16:50:13.500Z,2.74
2019-01-14T16:52:42.461Z,2.85
2019-01-14T16:55:13.249Z,2.89
2019-01-14T16:57:42.223Z,2.89
2019-01-14T17:00:16.744Z,2.90
2019-01-14T17:02:45.761Z,2.89
2019-01-14T17:05:15.464Z,2.95
2019-01-14T17:07:44.346Z,3.05
2019-01-14T17:10:14.722Z,3.12
2019-01-14T17:12:43.754Z,3.09
2019-01-14T17:15:13.186Z,3.12
2019-01-14T17:17:42.148Z,3.05
2019-01-14T17:20:14.947Z,2.99
2019-01-14T17:22:43.904Z,3.02
2019-01-14T17:25:13.419Z,3.03
2019-01-14T17:27:42.281Z,3.02
2019-01-14T17:30:12.957Z,2.97
2019-01-14T17:32:41.952Z,2.97
2019-01-14T17:35:11.032Z,2.99
2019-01-14T17:37:39.987Z,3.05
2019-01-14T17:40:11.589Z,3.05
2019-01-14T17:42:40.398Z,3.14
2019-01-14T17:45:10.048Z,3.08
2019-01-14T17:47:39.458Z,3.04
2019-01-14T17:50:12.030Z,3.11
2019-01-14T17:52:41.157Z,3.09
2019-01-14T17:55:10.181Z,3.05
2019-01-14T17:57:39.583Z,3.02
2019-01-14T18:00:36.731Z,3.14
2019-01-14T18:03:05.645Z,3.03
2019-01-14T18:05:34.529Z,3.11
2019-01-14T18:08:03.534Z,3.03
2019-01-14T18:10:39.707Z,2.92
2019-01-14T18:13:03.025Z,2.91
2019-01-14T18:15:31.937Z,2.87
2019-01-14T18:18:00.740Z,2.84
2019-01-14T18:20:29.704Z,2.81
2019-01-14T18:22:58.496Z,2.74
2019-01-14T18:25:27.407Z,2.70
2019-01-14T18:27:56.348Z,2.75
2019-01-14T18:30:25.246Z,2.69
2019-01-14T18:32:54.131Z,2.71
2019-01-14T18:35:23.038Z,2.72
2019-01-14T18:37:51.951Z,2.67
2019-01-14T18:40:20.934Z,2.62
2019-01-14T18:42:49.805Z,2.60
2019-01-14T18:45:20.150Z,2.62
2019-01-14T18:47:49.318Z,2.61
2019-01-14T18:50:22.801Z,2.63
2019-01-14T18:52:51.751Z,2.73
2019-01-14T18:55:20.707Z,2.75
2019-01-14T18:57:49.783Z,2.73
2019-01-14T19:00:23.405Z,2.64
2019-01-14T19:02:52.383Z,2.57
2019-01-14T19:05:21.270Z,2.52
2019-01-14T19:07:50.400Z,2.48
2019-01-14T19:10:19.582Z,2.58
2019-01-14T19:12:48.659Z,2.60
2019-01-14T19:15:19.308Z,2.62
2019-01-14T19:17:48.604Z,2.59
2019-01-14T19:20:19.760Z,2.46
2019-01-14T19:22:48.700Z,2.52
2019-01-14T19:25:17.665Z,2.42
2019-01-14T19:27:46.616Z,2.40
2019-01-14T19:30:17.193Z,2.42
2019-01-14T19:32:46.179Z,2.25
2019-01-14T19:35:15.238Z,2.39
2019-01-14T19:37:44.181Z,2.39
2019-01-14T19:40:15.092Z,2.46
2019-01-14T19:42:44.208Z,2.42
2019-01-14T19:45:13.492Z,2.47
2019-01-14T19:47:42.355Z,2.55
2019-01-14T19:50:17.674Z,2.57
2019-01-14T19:52:46.612Z,2.63
2019-01-14T19:55:15.616Z,2.65
2019-01-14T19:57:44.577Z,2.69
2019-01-14T20:00:16.851Z,2.71
2019-01-14T20:02:45.737Z,2.72
2019-01-14T20:05:14.972Z,2.70
2019-01-14T20:07:43.872Z,2.74
2019-01-14T20:10:13.871Z,2.80
2019-01-14T20:12:42.831Z,2.82
2019-01-14T20:15:13.209Z,2.82
2019-01-14T20:17:42.980Z,2.74
2019-01-14T20:20:12.203Z,2.80
2019-01-14T20:22:41.257Z,2.78
2019-01-14T20:25:10.745Z,2.81
2019-01-14T20:27:39.888Z,2.75
2019-01-14T20:30:19.187Z,2.77
2019-01-14T20:32:48.252Z,2.74
2019-01-14T20:35:17.224Z,2.80
2019-01-14T20:37:46.095Z,2.84
2019-01-14T20:40:15.826Z,2.84
2019-01-14T20:42:45.163Z,2.96
2019-01-14T20:45:15.106Z,2.95
2019-01-14T20:47:44.163Z,3.01
2019-01-14T20:50:15.909Z,2.96
2019-01-14T20:52:44.969Z,3.02
2019-01-14T20:55:14.225Z,2.95
2019-01-14T20:57:43.927Z,2.99
2019-01-14T21:00:15.558Z,2.90
2019-01-14T21:02:44.502Z,2.95
2019-01-14T21:05:14.363Z,2.96
2019-01-14T21:07:44.293Z,2.76
2019-01-14T21:10:15.380Z,2.74
2019-01-14T21:12:44.423Z,2.68
2019-01-14T21:15:14.456Z,2.59
2019-01-14T21:17:44.502Z,2.52
2019-01-14T21:20:16.334Z,2.21
2019-01-14T21:22:45.496Z,2.04
2019-01-14T21:25:14.608Z,1.86
2019-01-14T21:27:43.561Z,1.71
2019-01-14T21:30:15.302Z,1.61
2019-01-14T21:32:44.805Z,1.55
2019-01-14T21:35:14.026Z,1.54
2019-01-14T21:37:43.718Z,1.53
2019-01-14T21:40:13.218Z,1.52
2019-01-14T21:42:42.278Z,1.44
2019-01-14T21:45:12.105Z,1.49
2019-01-14T21:47:41.163Z,1.44
2019-01-14T21:50:12.947Z,1.47
2019-01-14T21:52:42.110Z,1.42
2019-01-14T21:55:13.248Z,1.40
2019-01-14T21:57:42.209Z,1.36
2019-01-14T22:02:40.646Z,1.32
2019-01-14T22:05:09.547Z,1.33
2019-01-14T22:07:38.440Z,1.39
2019-01-14T22:10:10.144Z,1.29
2019-01-14T22:12:39.094Z,1.35
2019-01-14T22:15:08.470Z,1.50
2019-01-14T22:17:37.349Z,1.56
2019-01-14T22:20:09.347Z,1.72
2019-01-14T22:22:38.293Z,1.66
2019-01-14T22:25:08.194Z,1.70
2019-01-14T22:27:37.146Z,1.84
2019-01-14T22:30:10.383Z,1.93
2019-01-14T22:32:39.332Z,1.91
2019-01-14T22:35:08.362Z,1.94
2019-01-14T22:37:37.350Z,2.00
2019-01-14T22:40:07.325Z,2.11
2019-01-14T22:42:36.296Z,2.02
2019-01-14T22:45:06.169Z,2.10
2019-01-14T22:47:35.137Z,2.07
2019-01-14T22:50:05.698Z,2.05
2019-01-14T22:52:34.642Z,1.99
2019-01-14T22:55:04.037Z,1.98
2019-01-14T22:57:32.837Z,1.79
2019-01-14T23:00:01.649Z,1.76
2019-01-14T23:02:30.789Z,1.81
2019-01-14T23:04:59.757Z,1.66
2019-01-14T23:07:28.754Z,1.71
2019-01-14T23:09:57.519Z,1.74
2019-01-14T23:12:26.398Z,1.73
2019-01-14T23:14:55.209Z,1.76
2019-01-14T23:17:24.000Z,1.71
2019-01-14T23:19:52.784Z,1.78
2019-01-14T23:22:21.902Z,1.87
2019-01-14T23:24:50.791Z,1.88
2019-01-14T23:27:19.693Z,1.89
2019-01-14T23:29:48.539Z,1.88
2019-01-14T23:32:18.324Z,2.02
2019-01-14T23:34:47.201Z,2.06
2019-01-14T23:37:16.141Z,2.13
2019-01-14T23:39:45.006Z,2.20
2019-01-14T23:42:13.897Z,2.16
2019-01-14T23:44:42.749Z,2.26
2019-01-14T23:47:11.570Z,2.28
2019-01-14T23:49:40.374Z,2.28
2019-01-14T23:52:09.233Z,2.29
2019-01-14T23:54:38.032Z,2.35
2019-01-14T23:57:06.918Z,2.36
2019-01-14T23:59:35.761Z,2.45
